createdAt,value
2019-05-18T00:00:28.892Z,988.39
2019-05-18T00:01:29.037Z,988.42
2019-05-18T00:02:29.933Z,988.39
2019-05-18T00:03:29.437Z,988.44
2019-05-18T00:04:29.614Z,988.42
2019-05-18T00:05:29.762Z,988.46
2019-05-18T00:06:29.919Z,988.44
2019-05-18T00:07:30.940Z,988.40
2019-05-18T00:08:30.302Z,988.39
2019-05-18T00:09:30.406Z,988.40
2019-05-18T00:10:30.945Z,988.40
2019-05-18T00:11:30.674Z,988.37
2019-05-18T00:12:30.832Z,988.37
2019-05-18T00:13:31.992Z,988.45
2019-05-18T00:14:31.212Z,988.45
2019-05-18T00:15:31.385Z,988.48
2019-05-18T00:16:31.562Z,988.44
2019-05-18T00:17:31.727Z,988.44
2019-05-18T00:18:31.879Z,988.42
2019-05-18T00:19:32.062Z,988.40
2019-05-18T00:20:32.211Z,988.45
2019-05-18T00:21:32.390Z,988.42
2019-05-18T00:22:32.580Z,988.43
2019-05-18T00:23:32.731Z,988.40
2019-05-18T00:24:32.892Z,988.40
2019-05-18T00:25:33.045Z,988.41
2019-05-18T00:26:33.175Z,988.45
2019-05-18T00:27:33.350Z,988.43
2019-05-18T00:28:34.449Z,988.41
2019-05-18T00:29:33.690Z,988.42
2019-05-18T00:30:33.851Z,988.45
2019-05-18T00:31:34.001Z,988.50
2019-05-18T00:32:34.190Z,988.48
2019-05-18T00:33:34.437Z,988.46
2019-05-18T00:34:34.501Z,988.49
2019-05-18T00:35:34.671Z,988.58
2019-05-18T00:36:34.848Z,988.58
2019-05-18T00:37:35.010Z,988.45
2019-05-18T00:38:35.151Z,988.43
2019-05-18T00:39:35.295Z,988.41
2019-05-18T00:40:35.489Z,988.43
2019-05-18T00:41:35.680Z,988.46
2019-05-18T00:42:35.892Z,988.43
2019-05-18T00:43:35.990Z,988.34
2019-05-18T00:44:36.158Z,988.36
2019-05-18T00:45:36.313Z,988.36
2019-05-18T00:46:37.444Z,988.37
2019-05-18T00:47:41.481Z,988.34
2019-05-18T00:48:38.730Z,988.38
2019-05-18T00:49:36.837Z,988.30
2019-05-18T00:50:37.937Z,988.23
2019-05-18T00:51:37.233Z,988.23
2019-05-18T00:52:37.961Z,988.22
2019-05-18T00:53:37.618Z,988.25
2019-05-18T00:54:37.777Z,988.23
2019-05-18T00:55:37.945Z,988.21
2019-05-18T00:56:38.114Z,988.21
2019-05-18T00:57:38.320Z,988.19
2019-05-18T00:58:38.496Z,988.09
2019-05-18T00:59:39.445Z,988.11
2019-05-18T01:00:38.830Z,988.10
2019-05-18T01:01:39.031Z,988.13
2019-05-18T01:02:39.208Z,988.09
2019-05-18T01:03:39.372Z,988.03
2019-05-18T01:04:39.537Z,988.05
2019-05-18T01:05:39.717Z,988.12
2019-05-18T01:06:39.881Z,987.99
2019-05-18T01:07:40.013Z,987.94
2019-05-18T01:08:40.151Z,988.01
2019-05-18T01:09:40.324Z,987.99
2019-05-18T01:10:40.477Z,988.01
2019-05-18T01:11:40.644Z,987.98
2019-05-18T01:12:40.856Z,987.99
2019-05-18T01:13:40.984Z,988.01
2019-05-18T01:14:41.148Z,987.98
2019-05-18T01:15:41.311Z,988.03
2019-05-18T01:16:41.973Z,988.01
2019-05-18T01:17:56.157Z,987.97
2019-05-18T01:18:42.787Z,987.96
2019-05-18T01:19:41.911Z,987.99
2019-05-18T01:20:42.084Z,987.94
2019-05-18T01:21:42.246Z,987.93
2019-05-18T01:22:42.431Z,987.93
2019-05-18T01:23:42.600Z,987.89
2019-05-18T01:24:42.771Z,987.90
2019-05-18T01:25:43.446Z,987.83
2019-05-18T01:26:43.088Z,987.86
2019-05-18T01:27:43.242Z,987.82
2019-05-18T01:28:43.435Z,987.84
2019-05-18T01:29:43.614Z,987.86
2019-05-18T01:30:43.795Z,987.83
2019-05-18T01:31:44.006Z,987.85
2019-05-18T01:32:44.203Z,987.86
2019-05-18T01:33:44.467Z,987.84
2019-05-18T01:34:44.521Z,987.85
2019-05-18T01:35:44.710Z,987.88
2019-05-18T01:36:44.867Z,987.90
2019-05-18T01:37:46.040Z,987.95
2019-05-18T01:38:45.206Z,988.02
2019-05-18T01:39:45.378Z,987.98
2019-05-18T01:40:45.588Z,987.95
2019-05-18T01:41:45.780Z,987.94
2019-05-18T01:42:45.964Z,987.90
2019-05-18T01:43:46.150Z,987.91
2019-05-18T01:44:46.328Z,987.85
2019-05-18T01:45:46.553Z,987.92
2019-05-18T01:46:46.730Z,987.97
2019-05-18T01:47:46.923Z,987.93
2019-05-18T01:48:47.113Z,987.94
2019-05-18T01:49:47.338Z,987.92
2019-05-18T01:50:47.513Z,987.88
2019-05-18T01:51:47.708Z,987.89
2019-05-18T01:52:48.451Z,987.81
2019-05-18T01:53:48.456Z,987.90
2019-05-18T01:54:48.243Z,987.91
2019-05-18T01:55:48.412Z,987.89
2019-05-18T01:56:48.601Z,987.88
2019-05-18T01:57:49.465Z,987.96
2019-05-18T01:58:49.966Z,987.90
2019-05-18T01:59:49.456Z,987.90
2019-05-18T02:00:49.369Z,987.96
2019-05-18T02:01:49.551Z,987.95
2019-05-18T02:02:49.722Z,987.89
2019-05-18T02:03:49.886Z,987.88
2019-05-18T02:04:50.040Z,988.01
2019-05-18T02:05:50.177Z,987.95
2019-05-18T02:06:50.388Z,987.99
2019-05-18T02:07:51.605Z,987.90
2019-05-18T02:08:50.978Z,987.87
2019-05-18T02:09:50.868Z,987.92
2019-05-18T02:10:51.007Z,987.91
2019-05-18T02:11:51.176Z,987.95
2019-05-18T02:12:51.378Z,987.94
2019-05-18T02:13:51.574Z,987.91
2019-05-18T02:14:51.741Z,987.88
2019-05-18T02:15:51.926Z,987.86
2019-05-18T02:16:52.054Z,987.82
2019-05-18T02:17:52.189Z,987.81
2019-05-18T02:18:52.379Z,987.80
2019-05-18T02:19:53.473Z,987.79
2019-05-18T02:20:52.746Z,987.82
2019-05-18T02:21:52.919Z,987.78
2019-05-18T02:22:53.061Z,987.81
2019-05-18T02:23:53.224Z,987.78
2019-05-18T02:24:53.394Z,987.84
2019-05-18T02:25:53.575Z,987.85
2019-05-18T02:26:54.460Z,987.83
2019-05-18T02:27:53.973Z,987.82
2019-05-18T02:28:54.960Z,987.82
2019-05-18T02:29:54.464Z,987.80
2019-05-18T02:30:54.514Z,987.86
2019-05-18T02:31:54.700Z,987.78
2019-05-18T02:32:54.848Z,987.76
2019-05-18T02:33:55.019Z,987.82
2019-05-18T02:34:55.469Z,987.82
2019-05-18T02:35:55.366Z,987.79
2019-05-18T02:36:55.520Z,987.78
2019-05-18T02:37:55.662Z,987.77
2019-05-18T02:38:55.802Z,987.76
2019-05-18T02:39:55.953Z,987.79
2019-05-18T02:40:56.137Z,987.74
2019-05-18T02:41:56.324Z,987.79
2019-05-18T02:42:56.483Z,987.80
2019-05-18T02:43:57.652Z,987.77
2019-05-18T02:44:56.774Z,987.79
2019-05-18T02:45:56.962Z,987.76
2019-05-18T02:46:57.469Z,987.80
2019-05-18T02:47:57.964Z,987.76
2019-05-18T02:48:57.474Z,987.78
2019-05-18T02:49:57.654Z,987.73
2019-05-18T02:50:57.867Z,987.74
2019-05-18T02:51:58.027Z,987.74
2019-05-18T02:52:58.180Z,987.79
2019-05-18T02:53:58.342Z,987.72
2019-05-18T02:54:58.546Z,987.69
2019-05-18T02:55:58.717Z,987.73
2019-05-18T02:56:59.891Z,987.78
2019-05-18T02:57:59.022Z,987.71
2019-05-18T02:58:59.199Z,987.74
2019-05-18T02:59:59.972Z,987.73
2019-05-18T03:00:59.508Z,987.68
2019-05-18T03:02:00.734Z,987.63
2019-05-18T03:02:59.856Z,987.66
2019-05-18T03:04:00.986Z,987.65
2019-05-18T03:05:00.217Z,987.62
2019-05-18T03:06:02.474Z,987.65
2019-05-18T03:07:00.774Z,987.59
2019-05-18T03:08:00.928Z,987.50
2019-05-18T03:09:01.086Z,987.56
2019-05-18T03:10:01.226Z,987.58
2019-05-18T03:11:01.364Z,987.57
2019-05-18T03:12:01.500Z,987.53
2019-05-18T03:13:01.637Z,987.51
2019-05-18T03:14:01.776Z,987.52
2019-05-18T03:15:01.949Z,987.47
2019-05-18T03:16:02.129Z,987.53
2019-05-18T03:17:02.258Z,987.49
2019-05-18T03:18:02.437Z,987.51
2019-05-18T03:19:08.296Z,987.57
2019-05-18T03:20:04.836Z,987.50
2019-05-18T03:21:03.026Z,987.50
2019-05-18T03:22:03.183Z,987.48
2019-05-18T03:23:03.330Z,987.48
2019-05-18T03:24:03.475Z,987.51
2019-05-18T03:25:03.592Z,987.43
2019-05-18T03:26:04.861Z,987.43
2019-05-18T03:27:04.087Z,987.51
2019-05-18T03:28:04.251Z,987.50
2019-05-18T03:29:04.398Z,987.45
2019-05-18T03:30:04.525Z,987.49
2019-05-18T03:31:04.681Z,987.47
2019-05-18T03:32:04.873Z,987.50
2019-05-18T03:33:05.470Z,987.50
2019-05-18T03:34:05.292Z,987.51
2019-05-18T03:35:05.441Z,987.48
2019-05-18T03:36:05.581Z,987.50
2019-05-18T03:37:05.706Z,987.44
2019-05-18T03:38:05.846Z,987.49
2019-05-18T03:39:05.997Z,987.53
2019-05-18T03:40:06.126Z,987.46
2019-05-18T03:41:06.279Z,987.45
2019-05-18T03:42:06.964Z,987.51
2019-05-18T03:43:06.595Z,987.53
2019-05-18T03:44:06.765Z,987.55
2019-05-18T03:45:06.899Z,987.52
2019-05-18T03:46:07.035Z,987.54
2019-05-18T03:47:07.157Z,987.56
2019-05-18T03:48:07.317Z,987.58
2019-05-18T03:49:23.622Z,987.60
2019-05-18T03:50:08.572Z,987.58
2019-05-18T03:51:07.689Z,987.57
2019-05-18T03:52:07.852Z,987.56
2019-05-18T03:53:07.989Z,987.60
2019-05-18T03:54:08.502Z,987.53
2019-05-18T03:55:08.372Z,987.57
2019-05-18T03:56:08.529Z,987.64
2019-05-18T03:57:08.988Z,987.60
2019-05-18T03:58:08.860Z,987.58
2019-05-18T03:59:08.989Z,987.58
2019-05-18T04:00:09.964Z,987.57
2019-05-18T04:01:09.327Z,987.56
2019-05-18T04:02:09.413Z,987.52
2019-05-18T04:03:09.657Z,987.52
2019-05-18T04:04:09.872Z,987.55
2019-05-18T04:05:10.469Z,987.48
2019-05-18T04:06:10.313Z,987.49
2019-05-18T04:07:11.466Z,987.40
2019-05-18T04:08:10.771Z,987.50
2019-05-18T04:09:11.971Z,987.46
2019-05-18T04:10:11.191Z,987.38
2019-05-18T04:11:11.400Z,987.31
2019-05-18T04:12:11.636Z,987.34
2019-05-18T04:13:11.850Z,987.34
2019-05-18T04:14:12.080Z,987.30
2019-05-18T04:15:13.337Z,987.34
2019-05-18T04:16:12.582Z,987.34
2019-05-18T04:17:12.675Z,987.35
2019-05-18T04:18:12.914Z,987.33
2019-05-18T04:19:13.985Z,987.37
2019-05-18T04:20:13.312Z,987.33
2019-05-18T04:21:13.568Z,987.39
2019-05-18T04:22:13.697Z,987.31
2019-05-18T04:23:14.818Z,987.35
2019-05-18T04:24:14.052Z,987.37
2019-05-18T04:25:14.963Z,987.35
2019-05-18T04:26:14.363Z,987.35
2019-05-18T04:27:14.513Z,987.41
2019-05-18T04:28:14.659Z,987.34
2019-05-18T04:29:14.771Z,987.44
2019-05-18T04:30:15.477Z,987.41
2019-05-18T04:31:15.154Z,987.37
2019-05-18T04:32:15.294Z,987.41
2019-05-18T04:33:15.460Z,987.43
2019-05-18T04:34:15.597Z,987.39
2019-05-18T04:35:15.730Z,987.39
2019-05-18T04:36:15.886Z,987.35
2019-05-18T04:37:16.077Z,987.33
2019-05-18T04:38:16.226Z,987.33
2019-05-18T04:39:16.431Z,987.37
2019-05-18T04:40:17.477Z,987.33
2019-05-18T04:41:16.731Z,987.38
2019-05-18T04:42:16.910Z,987.34
2019-05-18T04:43:17.081Z,987.26
2019-05-18T04:44:17.241Z,987.37
2019-05-18T04:45:17.391Z,987.31
2019-05-18T04:46:18.489Z,987.33
2019-05-18T04:47:17.797Z,987.31
2019-05-18T04:48:17.936Z,987.33
2019-05-18T04:49:18.088Z,987.34
2019-05-18T04:50:18.284Z,987.38
2019-05-18T04:51:18.457Z,987.28
2019-05-18T04:52:18.611Z,987.35
2019-05-18T04:53:18.750Z,987.40
2019-05-18T04:54:18.900Z,987.34
2019-05-18T04:55:19.062Z,987.43
2019-05-18T04:56:19.188Z,987.35
2019-05-18T04:57:19.309Z,987.35
2019-05-18T04:58:19.482Z,987.35
2019-05-18T04:59:19.621Z,987.38
2019-05-18T05:00:20.471Z,987.34
2019-05-18T05:01:19.967Z,987.37
2019-05-18T05:02:20.112Z,987.36
2019-05-18T05:03:20.249Z,987.32
2019-05-18T05:04:20.383Z,987.32
2019-05-18T05:05:20.529Z,987.32
2019-05-18T05:06:20.647Z,987.27
2019-05-18T05:07:20.830Z,987.32
2019-05-18T05:08:21.022Z,987.15
2019-05-18T05:09:21.178Z,987.05
2019-05-18T05:10:21.336Z,986.90
2019-05-18T05:11:21.500Z,986.81
2019-05-18T05:12:21.628Z,986.75
2019-05-18T05:13:21.789Z,986.67
2019-05-18T05:14:21.932Z,986.57
2019-05-18T05:15:28.866Z,986.53
2019-05-18T05:16:22.292Z,986.50
2019-05-18T05:17:22.442Z,986.43
2019-05-18T05:18:22.606Z,986.41
2019-05-18T05:19:22.837Z,986.40
2019-05-18T05:20:23.074Z,986.35
2019-05-18T05:21:23.111Z,986.34
2019-05-18T05:22:23.981Z,986.37
2019-05-18T05:23:23.475Z,986.43
2019-05-18T05:24:23.722Z,986.30
2019-05-18T05:25:23.869Z,986.26
2019-05-18T05:26:23.968Z,986.21
2019-05-18T05:27:25.218Z,986.10
2019-05-18T05:28:24.461Z,986.21
2019-05-18T05:29:24.613Z,986.19
2019-05-18T05:30:24.780Z,986.25
2019-05-18T05:31:24.927Z,986.18
2019-05-18T05:32:25.040Z,986.25
2019-05-18T05:33:25.163Z,986.25
2019-05-18T05:34:25.326Z,986.26
2019-05-18T05:35:25.537Z,986.22
2019-05-18T05:36:25.643Z,986.26
2019-05-18T05:37:26.483Z,986.36
2019-05-18T05:38:26.095Z,986.38
2019-05-18T05:39:26.237Z,986.37
2019-05-18T05:40:26.420Z,986.30
2019-05-18T05:41:26.571Z,986.33
2019-05-18T05:42:26.748Z,986.41
2019-05-18T05:43:26.885Z,986.36
2019-05-18T05:44:27.026Z,986.28
2019-05-18T05:45:27.200Z,986.25
2019-05-18T05:46:27.314Z,986.19
2019-05-18T05:47:27.503Z,986.20
2019-05-18T05:48:27.671Z,986.23
2019-05-18T05:49:27.805Z,986.24
2019-05-18T05:50:36.076Z,986.16
2019-05-18T05:51:30.208Z,986.11
2019-05-18T05:52:28.984Z,986.08
2019-05-18T05:53:28.491Z,986.04
2019-05-18T05:54:28.640Z,985.96
2019-05-18T05:55:28.778Z,986.03
2019-05-18T05:56:28.971Z,986.05
2019-05-18T05:57:29.136Z,986.13
2019-05-18T05:58:29.318Z,986.21
2019-05-18T05:59:29.486Z,986.21
2019-05-18T06:00:29.649Z,986.15
2019-05-18T06:01:29.877Z,986.16
2019-05-18T06:02:30.069Z,986.23
2019-05-18T06:03:30.262Z,986.24
2019-05-18T06:04:30.448Z,986.14
2019-05-18T06:05:30.612Z,986.19
2019-05-18T06:06:30.806Z,986.20
2019-05-18T06:07:30.987Z,986.21
2019-05-18T06:08:31.157Z,986.22
2019-05-18T06:09:32.357Z,986.26
2019-05-18T06:10:31.509Z,986.28
2019-05-18T06:11:31.720Z,986.31
2019-05-18T06:12:31.893Z,986.37
2019-05-18T06:13:32.060Z,986.30
2019-05-18T06:14:32.214Z,986.32
2019-05-18T06:15:32.389Z,986.34
2019-05-18T06:16:32.564Z,986.43
2019-05-18T06:17:33.007Z,986.42
2019-05-18T06:18:32.929Z,986.45
2019-05-18T06:19:33.142Z,986.49
2019-05-18T06:20:33.312Z,986.51
2019-05-18T06:21:34.007Z,986.56
2019-05-18T06:22:33.684Z,986.47
2019-05-18T06:23:33.869Z,986.51
2019-05-18T06:24:34.071Z,986.53
2019-05-18T06:25:34.620Z,986.54
2019-05-18T06:26:36.000Z,986.53
2019-05-18T06:27:35.013Z,986.54
2019-05-18T06:28:34.810Z,986.55
2019-05-18T06:29:34.973Z,986.44
2019-05-18T06:30:35.145Z,986.32
2019-05-18T06:31:35.319Z,986.29
2019-05-18T06:32:36.403Z,986.25
2019-05-18T06:33:35.564Z,986.19
2019-05-18T06:34:35.742Z,986.13
2019-05-18T06:35:35.983Z,986.02
2019-05-18T06:36:36.136Z,985.92
2019-05-18T06:37:36.281Z,985.98
2019-05-18T06:38:36.509Z,985.77
2019-05-18T06:39:36.686Z,985.71
2019-05-18T06:40:36.859Z,985.62
2019-05-18T06:41:38.024Z,985.53
2019-05-18T06:42:37.194Z,985.70
2019-05-18T06:43:37.395Z,985.71
2019-05-18T06:44:37.557Z,985.69
2019-05-18T06:45:38.734Z,985.69
2019-05-18T06:46:38.506Z,985.76
2019-05-18T06:47:38.032Z,985.82
2019-05-18T06:48:38.218Z,985.76
2019-05-18T06:49:38.403Z,985.71
2019-05-18T06:50:38.587Z,985.66
2019-05-18T06:51:38.756Z,985.61
2019-05-18T06:52:38.907Z,985.61
2019-05-18T06:53:39.138Z,985.59
2019-05-18T06:54:39.312Z,985.59
2019-05-18T06:55:39.526Z,985.64
2019-05-18T06:56:39.689Z,985.66
2019-05-18T06:57:39.851Z,985.72
2019-05-18T06:58:41.019Z,985.68
2019-05-18T06:59:40.185Z,985.68
2019-05-18T07:00:40.345Z,985.69
2019-05-18T07:01:40.513Z,985.63
2019-05-18T07:02:41.510Z,985.58
2019-05-18T07:03:40.900Z,985.56
2019-05-18T07:04:41.087Z,985.62
2019-05-18T07:05:41.256Z,985.56
2019-05-18T07:06:42.006Z,985.49
2019-05-18T07:07:41.651Z,985.51
2019-05-18T07:08:41.831Z,985.52
2019-05-18T07:09:42.022Z,985.47
2019-05-18T07:10:42.170Z,985.40
2019-05-18T07:11:42.340Z,985.49
2019-05-18T07:12:42.500Z,985.48
2019-05-18T07:13:42.663Z,985.48
2019-05-18T07:14:42.848Z,985.37
2019-05-18T07:15:43.031Z,985.46
2019-05-18T07:16:43.190Z,985.34
2019-05-18T07:17:43.330Z,985.30
2019-05-18T07:18:43.493Z,985.23
2019-05-18T07:19:43.701Z,985.34
2019-05-18T07:20:43.827Z,985.35
2019-05-18T07:21:43.975Z,985.37
2019-05-18T07:22:44.116Z,985.41
2019-05-18T07:23:44.262Z,985.41
2019-05-18T07:24:44.523Z,985.39
2019-05-18T07:25:44.561Z,985.45
2019-05-18T07:26:44.718Z,985.41
2019-05-18T07:27:44.882Z,985.33
2019-05-18T07:28:45.041Z,985.32
2019-05-18T07:29:45.212Z,985.36
2019-05-18T07:30:45.351Z,985.23
2019-05-18T07:31:45.529Z,985.29
2019-05-18T07:32:45.702Z,985.19
2019-05-18T07:33:45.850Z,985.11
2019-05-18T07:34:45.997Z,985.11
2019-05-18T07:35:46.131Z,985.07
2019-05-18T07:36:46.282Z,985.07
2019-05-18T07:37:46.441Z,985.01
2019-05-18T07:38:47.535Z,985.03
2019-05-18T07:39:46.824Z,985.05
2019-05-18T07:40:46.994Z,985.05
2019-05-18T07:41:47.383Z,984.93
2019-05-18T07:42:48.023Z,985.00
2019-05-18T07:43:48.047Z,984.96
2019-05-18T07:44:47.722Z,984.97
2019-05-18T07:45:47.891Z,984.96
2019-05-18T07:46:48.053Z,985.00
2019-05-18T07:47:48.233Z,984.99
2019-05-18T07:48:48.432Z,984.97
2019-05-18T07:49:48.637Z,984.99
2019-05-18T07:50:48.846Z,985.01
2019-05-18T07:51:49.012Z,984.98
2019-05-18T07:52:49.546Z,984.89
2019-05-18T07:53:49.326Z,984.89
2019-05-18T07:54:49.585Z,984.81
2019-05-18T07:55:49.692Z,984.88
2019-05-18T07:56:49.849Z,984.71
2019-05-18T07:57:50.005Z,984.71
2019-05-18T07:58:50.175Z,984.79
2019-05-18T07:59:50.326Z,984.91
2019-05-18T08:00:50.555Z,984.93
2019-05-18T08:01:50.714Z,984.94
2019-05-18T08:02:50.861Z,985.06
2019-05-18T08:03:50.985Z,985.07
2019-05-18T08:04:51.164Z,985.23
2019-05-18T08:05:52.036Z,985.18
2019-05-18T08:06:51.583Z,985.18
2019-05-18T08:07:51.720Z,985.17
2019-05-18T08:08:51.878Z,985.24
2019-05-18T08:09:53.057Z,985.23
2019-05-18T08:10:52.179Z,985.24
2019-05-18T08:11:52.342Z,985.27
2019-05-18T08:12:52.485Z,985.28
2019-05-18T08:13:53.547Z,985.26
2019-05-18T08:14:52.819Z,985.27
2019-05-18T08:15:52.992Z,985.26
2019-05-18T08:16:53.177Z,985.19
2019-05-18T08:17:53.369Z,985.27
2019-05-18T08:18:53.547Z,985.26
2019-05-18T08:19:53.732Z,985.19
2019-05-18T08:20:53.970Z,985.15
2019-05-18T08:21:55.051Z,985.19
2019-05-18T08:22:54.341Z,985.23
2019-05-18T08:23:54.537Z,985.29
2019-05-18T08:24:55.543Z,985.24
2019-05-18T08:25:54.969Z,985.33
2019-05-18T08:26:55.147Z,985.34
2019-05-18T08:27:55.357Z,985.36
2019-05-18T08:28:55.441Z,985.30
2019-05-18T08:29:55.590Z,985.36
2019-05-18T08:30:55.754Z,985.41
2019-05-18T08:31:55.934Z,985.36
2019-05-18T08:32:56.144Z,985.33
2019-05-18T08:33:56.307Z,985.28
2019-05-18T08:34:56.485Z,985.40
2019-05-18T08:35:56.638Z,985.34
2019-05-18T08:36:56.789Z,985.31
2019-05-18T08:37:56.964Z,985.37
2019-05-18T08:38:57.159Z,985.29
2019-05-18T08:39:57.314Z,985.30
2019-05-18T08:40:57.488Z,985.35
2019-05-18T08:41:57.674Z,985.32
2019-05-18T08:42:57.850Z,985.35
2019-05-18T08:43:58.056Z,985.35
2019-05-18T08:44:59.053Z,985.39
2019-05-18T08:45:58.463Z,985.40
2019-05-18T08:46:58.638Z,985.40
2019-05-18T08:47:58.788Z,985.41
2019-05-18T08:48:59.008Z,985.38
2019-05-18T08:50:00.071Z,985.43
2019-05-18T08:50:59.362Z,985.42
2019-05-18T08:52:07.767Z,985.47
2019-05-18T08:53:01.680Z,985.47
2019-05-18T08:53:59.848Z,985.54
2019-05-18T08:55:00.053Z,985.38
2019-05-18T08:56:00.558Z,985.40
2019-05-18T08:57:00.356Z,985.39
2019-05-18T08:58:00.540Z,985.46
2019-05-18T08:59:00.754Z,985.41
2019-05-18T09:00:00.945Z,985.42
2019-05-18T09:01:01.149Z,985.43
2019-05-18T09:02:01.313Z,985.42
2019-05-18T09:03:01.481Z,985.47
2019-05-18T09:04:01.648Z,985.45
2019-05-18T09:05:04.887Z,985.53
2019-05-18T09:06:02.973Z,985.52
2019-05-18T09:07:02.123Z,985.42
2019-05-18T09:08:02.313Z,985.47
2019-05-18T09:09:02.471Z,985.38
2019-05-18T09:10:02.635Z,985.38
2019-05-18T09:11:02.828Z,985.25
2019-05-18T09:12:03.017Z,985.24
2019-05-18T09:13:03.237Z,985.14
2019-05-18T09:14:03.401Z,985.13
2019-05-18T09:15:03.575Z,985.06
2019-05-18T09:16:04.064Z,985.04
2019-05-18T09:17:03.936Z,985.09
2019-05-18T09:18:05.224Z,985.06
2019-05-18T09:19:04.268Z,985.10
2019-05-18T09:20:04.408Z,985.12
2019-05-18T09:21:05.089Z,985.11
2019-05-18T09:22:04.733Z,985.15
2019-05-18T09:23:04.882Z,985.15
2019-05-18T09:24:05.056Z,985.09
2019-05-18T09:25:05.237Z,985.03
2019-05-18T09:26:06.075Z,985.04
2019-05-18T09:27:06.088Z,985.20
2019-05-18T09:28:05.772Z,985.07
2019-05-18T09:29:05.968Z,985.08
2019-05-18T09:30:06.199Z,984.99
2019-05-18T09:31:06.400Z,985.06
2019-05-18T09:32:06.609Z,985.11
2019-05-18T09:33:06.789Z,985.08
2019-05-18T09:34:07.063Z,985.05
2019-05-18T09:35:07.136Z,985.09
2019-05-18T09:36:07.331Z,985.17
2019-05-18T09:37:07.547Z,985.18
2019-05-18T09:38:07.748Z,985.28
2019-05-18T09:39:07.900Z,985.32
2019-05-18T09:40:08.584Z,985.39
2019-05-18T09:41:08.233Z,985.34
2019-05-18T09:42:09.088Z,985.34
2019-05-18T09:43:08.627Z,985.34
2019-05-18T09:44:08.786Z,985.34
2019-05-18T09:45:09.596Z,985.37
2019-05-18T09:46:09.119Z,985.46
2019-05-18T09:47:09.272Z,985.43
2019-05-18T09:48:09.463Z,985.43
2019-05-18T09:49:09.632Z,985.33
2019-05-18T09:50:09.798Z,985.33
2019-05-18T09:51:09.964Z,985.29
2019-05-18T09:52:10.103Z,985.31
2019-05-18T09:53:10.249Z,985.36
2019-05-18T09:54:10.416Z,985.41
2019-05-18T09:55:10.604Z,985.43
2019-05-18T09:56:10.788Z,985.52
2019-05-18T09:57:10.967Z,985.48
2019-05-18T09:58:11.132Z,985.56
2019-05-18T09:59:11.313Z,985.54
2019-05-18T10:00:11.511Z,985.55
2019-05-18T10:01:12.095Z,985.60
2019-05-18T10:02:11.893Z,985.57
2019-05-18T10:03:12.104Z,985.60
2019-05-18T10:04:12.595Z,985.54
2019-05-18T10:05:12.567Z,985.51
2019-05-18T10:06:12.643Z,985.55
2019-05-18T10:07:12.824Z,985.49
2019-05-18T10:08:13.005Z,985.42
2019-05-18T10:09:13.614Z,985.39
2019-05-18T10:10:13.433Z,985.33
2019-05-18T10:11:13.601Z,985.34
2019-05-18T10:12:13.747Z,985.28
2019-05-18T10:13:14.915Z,985.24
2019-05-18T10:14:14.186Z,985.27
2019-05-18T10:15:14.395Z,985.23
2019-05-18T10:16:14.588Z,985.18
2019-05-18T10:17:14.768Z,985.28
2019-05-18T10:18:14.934Z,985.27
2019-05-18T10:19:15.107Z,985.26
2019-05-18T10:20:15.286Z,985.25
2019-05-18T10:21:15.453Z,985.29
2019-05-18T10:22:15.619Z,985.31
2019-05-18T10:23:16.578Z,985.31
2019-05-18T10:24:16.009Z,985.26
2019-05-18T10:25:17.087Z,985.29
2019-05-18T10:26:16.357Z,985.24
2019-05-18T10:27:16.614Z,985.23
2019-05-18T10:28:16.669Z,985.28
2019-05-18T10:29:16.829Z,985.20
2019-05-18T10:30:17.023Z,985.30
2019-05-18T10:31:17.223Z,985.31
2019-05-18T10:32:17.369Z,985.32
2019-05-18T10:33:17.520Z,985.33
2019-05-18T10:34:17.676Z,985.45
2019-05-18T10:35:17.835Z,985.38
2019-05-18T10:36:18.113Z,985.35
2019-05-18T10:37:18.140Z,985.36
2019-05-18T10:38:18.282Z,985.41
2019-05-18T10:39:18.437Z,985.31
2019-05-18T10:40:18.622Z,985.28
2019-05-18T10:41:18.805Z,985.39
2019-05-18T10:42:19.960Z,985.41
2019-05-18T10:43:19.079Z,985.47
2019-05-18T10:44:19.247Z,985.44
2019-05-18T10:45:19.404Z,985.44
2019-05-18T10:46:19.607Z,985.49
2019-05-18T10:47:20.595Z,985.48
2019-05-18T10:48:19.964Z,985.56
2019-05-18T10:49:20.113Z,985.55
2019-05-18T10:50:20.284Z,985.51
2019-05-18T10:51:20.474Z,985.61
2019-05-18T10:52:20.631Z,985.64
2019-05-18T10:53:28.792Z,985.64
2019-05-18T10:54:23.631Z,985.65
2019-05-18T10:55:21.266Z,985.68
2019-05-18T10:56:21.614Z,985.61
2019-05-18T10:57:22.613Z,985.66
2019-05-18T10:58:21.858Z,985.68
2019-05-18T10:59:21.981Z,985.63
2019-05-18T11:00:22.117Z,985.62
2019-05-18T11:01:22.614Z,985.63
2019-05-18T11:02:22.406Z,985.61
2019-05-18T11:03:22.527Z,985.56
2019-05-18T11:04:22.651Z,985.57
2019-05-18T11:05:22.795Z,985.53
2019-05-18T11:06:22.923Z,985.48
2019-05-18T11:07:23.123Z,985.44
2019-05-18T11:08:23.279Z,985.47
2019-05-18T11:09:24.112Z,985.52
2019-05-18T11:10:23.617Z,985.47
2019-05-18T11:11:23.778Z,985.47
2019-05-18T11:12:23.958Z,985.43
2019-05-18T11:13:24.098Z,985.44
2019-05-18T11:14:24.211Z,985.41
2019-05-18T11:15:25.407Z,985.43
2019-05-18T11:16:24.522Z,985.34
2019-05-18T11:17:24.689Z,985.37
2019-05-18T11:18:24.820Z,985.42
2019-05-18T11:19:24.935Z,985.42
2019-05-18T11:20:25.095Z,985.37
2019-05-18T11:21:25.234Z,985.36
2019-05-18T11:22:25.366Z,985.36
2019-05-18T11:23:25.516Z,985.33
2019-05-18T11:24:26.615Z,985.32
2019-05-18T11:25:26.624Z,985.34
2019-05-18T11:26:26.002Z,985.30
2019-05-18T11:27:26.145Z,985.30
2019-05-18T11:28:26.284Z,985.29
2019-05-18T11:29:26.452Z,985.34
2019-05-18T11:30:26.606Z,985.27
2019-05-18T11:31:26.713Z,985.25
2019-05-18T11:32:27.117Z,985.27
2019-05-18T11:33:27.139Z,985.22
2019-05-18T11:34:27.201Z,985.30
2019-05-18T11:35:27.321Z,985.27
2019-05-18T11:36:27.548Z,985.25
2019-05-18T11:37:27.675Z,985.27
2019-05-18T11:38:27.955Z,985.19
2019-05-18T11:39:28.115Z,985.19
2019-05-18T11:40:28.279Z,985.27
2019-05-18T11:41:28.451Z,985.18
2019-05-18T11:42:28.614Z,985.22
2019-05-18T11:43:29.132Z,985.17
2019-05-18T11:44:28.889Z,985.16
2019-05-18T11:45:29.049Z,985.24
2019-05-18T11:46:30.120Z,985.16
2019-05-18T11:47:29.351Z,985.21
2019-05-18T11:48:29.511Z,985.24
2019-05-18T11:49:29.655Z,985.24
2019-05-18T11:50:29.806Z,985.28
2019-05-18T11:51:29.973Z,985.28
2019-05-18T11:52:31.122Z,985.23
2019-05-18T11:53:30.389Z,985.26
2019-05-18T11:54:30.567Z,985.28
2019-05-18T11:55:30.730Z,985.34
2019-05-18T11:56:30.899Z,985.38
2019-05-18T11:57:31.068Z,985.34
2019-05-18T11:58:31.264Z,985.42
2019-05-18T11:59:31.444Z,985.37
2019-05-18T12:00:31.605Z,985.46
2019-05-18T12:01:31.738Z,985.41
2019-05-18T12:02:31.851Z,985.45
2019-05-18T12:03:32.012Z,985.35
2019-05-18T12:04:32.141Z,985.46
2019-05-18T12:05:32.275Z,985.47
2019-05-18T12:06:32.429Z,985.47
2019-05-18T12:07:33.125Z,985.45
2019-05-18T12:08:33.147Z,985.51
2019-05-18T12:09:32.945Z,985.51
2019-05-18T12:10:33.094Z,985.49
2019-05-18T12:11:33.259Z,985.49
2019-05-18T12:12:33.454Z,985.49
2019-05-18T12:13:33.669Z,985.49
2019-05-18T12:14:33.874Z,985.51
2019-05-18T12:15:34.630Z,985.47
2019-05-18T12:16:34.136Z,985.56
2019-05-18T12:17:34.252Z,985.52
2019-05-18T12:18:34.451Z,985.51
2019-05-18T12:19:34.555Z,985.54
2019-05-18T12:20:35.648Z,985.59
2019-05-18T12:21:34.909Z,985.56
2019-05-18T12:22:35.631Z,985.50
2019-05-18T12:23:35.265Z,985.49
2019-05-18T12:24:35.494Z,985.51
2019-05-18T12:25:35.586Z,985.51
2019-05-18T12:26:35.756Z,985.60
2019-05-18T12:27:36.649Z,985.50
2019-05-18T12:28:36.036Z,985.56
2019-05-18T12:29:37.129Z,985.53
2019-05-18T12:30:36.364Z,985.53